createdAt,value
2019-04-16T00:00:26.525Z,7.30
2019-04-16T00:02:58.515Z,6.03
2019-04-16T00:05:44.163Z,8.20
2019-04-16T00:08:27.142Z,7.87
2019-04-16T00:10:54.550Z,6.33
2019-04-16T00:13:28.751Z,7.70
2019-04-16T00:16:01.641Z,8.17
2019-04-16T00:18:32.761Z,10.08
2019-04-16T00:21:22.000Z,7.80
2019-04-16T00:24:19.177Z,6.80
2019-04-16T00:26:58.050Z,5.90
2019-04-16T00:29:32.565Z,5.80
2019-04-16T00:32:07.867Z,7.53
2019-04-16T00:34:37.209Z,6.80
2019-04-16T00:37:08.195Z,6.73
2019-04-16T00:39:39.509Z,6.77
2019-04-16T00:42:10.713Z,6.80
2019-04-16T00:44:42.029Z,5.17
2019-04-16T00:47:13.026Z,8.73
2019-04-16T00:49:44.457Z,6.13
2019-04-16T00:52:15.559Z,6.83
2019-04-16T00:54:46.825Z,6.03
2019-04-16T00:57:18.638Z,6.27
2019-04-16T00:59:49.627Z,4.90
2019-04-16T01:02:20.747Z,5.07
2019-04-16T01:04:51.811Z,4.73
2019-04-16T01:07:23.791Z,7.03
2019-04-16T01:09:54.832Z,6.13
2019-04-16T01:12:25.978Z,7.73
2019-04-16T01:15:00.697Z,9.47
2019-04-16T01:17:29.701Z,5.20
2019-04-16T01:20:00.774Z,5.00
2019-04-16T01:22:31.753Z,6.50
2019-04-16T01:25:02.786Z,6.08
2019-04-16T01:27:37.224Z,8.50
2019-04-16T01:30:09.894Z,5.00
2019-04-16T01:32:49.740Z,4.43
2019-04-16T01:35:38.472Z,7.30
2019-04-16T01:38:28.587Z,7.28
2019-04-16T01:41:02.074Z,7.40
2019-04-16T01:43:33.361Z,8.35
2019-04-16T01:46:04.535Z,9.73
2019-04-16T01:48:38.637Z,6.60
2019-04-16T01:51:08.221Z,9.40
2019-04-16T01:53:40.217Z,9.30
2019-04-16T01:56:11.416Z,8.67
2019-04-16T01:58:42.839Z,8.30
2019-04-16T02:01:13.858Z,4.77
2019-04-16T02:03:48.617Z,8.30
2019-04-16T02:06:17.650Z,7.28
2019-04-16T02:08:48.661Z,9.57
2019-04-16T02:11:19.710Z,6.97
2019-04-16T02:13:50.683Z,9.10
2019-04-16T02:16:22.316Z,7.57
2019-04-16T02:18:54.378Z,10.23
2019-04-16T02:21:25.349Z,5.93
2019-04-16T02:23:56.428Z,8.37
2019-04-16T02:26:28.684Z,6.13
2019-04-16T02:28:59.684Z,7.10
2019-04-16T02:31:30.701Z,6.35
2019-04-16T02:34:01.664Z,9.23
2019-04-16T02:36:32.696Z,8.13
2019-04-16T02:39:07.241Z,6.20
2019-04-16T02:41:38.309Z,6.87
2019-04-16T02:44:14.045Z,6.60
2019-04-16T02:46:42.219Z,5.87
2019-04-16T02:49:13.174Z,5.13
2019-04-16T02:52:03.100Z,6.20
2019-04-16T02:54:39.579Z,5.28
2019-04-16T02:57:28.464Z,7.50
2019-04-16T03:00:04.424Z,6.23
2019-04-16T03:02:53.659Z,7.73
2019-04-16T03:05:28.978Z,8.83
2019-04-16T03:08:01.442Z,5.83
2019-04-16T03:10:32.326Z,7.27
2019-04-16T03:13:03.393Z,11.63
2019-04-16T03:15:52.310Z,9.40
2019-04-16T03:18:28.003Z,7.53
2019-04-16T03:20:59.038Z,6.13
2019-04-16T03:23:30.030Z,6.97
2019-04-16T03:26:01.404Z,7.53
2019-04-16T03:28:32.351Z,5.73
2019-04-16T03:31:08.068Z,5.25
2019-04-16T03:33:36.258Z,9.83
2019-04-16T03:36:07.426Z,7.77
2019-04-16T03:38:41.924Z,6.70
2019-04-16T03:41:11.416Z,5.20
2019-04-16T03:43:42.369Z,9.67
2019-04-16T03:46:14.183Z,8.10
2019-04-16T03:48:45.364Z,6.43
2019-04-16T03:51:16.414Z,6.83
2019-04-16T03:53:49.575Z,7.63
2019-04-16T03:56:20.138Z,8.17
2019-04-16T03:58:51.113Z,11.00
2019-04-16T04:01:22.169Z,7.60
2019-04-16T04:03:57.076Z,5.20
2019-04-16T04:06:26.230Z,6.50
2019-04-16T04:08:57.192Z,5.67
2019-04-16T04:11:28.915Z,7.08
2019-04-16T04:13:59.876Z,6.17
2019-04-16T04:16:33.535Z,7.30
2019-04-16T04:19:03.835Z,8.25
2019-04-16T04:21:34.817Z,6.20
2019-04-16T04:24:05.957Z,7.10
2019-04-16T04:26:41.211Z,6.93
2019-04-16T04:29:09.649Z,8.07
2019-04-16T04:31:40.571Z,8.83
2019-04-16T04:34:15.784Z,7.70
2019-04-16T04:36:44.249Z,7.67
2019-04-16T04:39:15.949Z,5.40
2019-04-16T04:41:47.159Z,8.90
2019-04-16T04:44:18.230Z,6.63
2019-04-16T04:46:49.290Z,8.43
2019-04-16T04:49:20.388Z,8.87
2019-04-16T04:51:51.496Z,8.33
2019-04-16T04:54:23.486Z,7.17
2019-04-16T04:56:56.387Z,11.43
2019-04-16T04:59:27.833Z,4.53
2019-04-16T05:01:59.154Z,5.53
2019-04-16T05:04:52.452Z,7.50
2019-04-16T05:07:25.763Z,7.10
2019-04-16T05:09:56.976Z,8.27
2019-04-16T05:12:29.105Z,9.38
2019-04-16T05:15:03.664Z,9.50
2019-04-16T05:17:35.525Z,8.78
2019-04-16T05:20:06.586Z,8.87
2019-04-16T05:22:38.629Z,5.87
2019-04-16T05:25:10.243Z,10.63
2019-04-16T05:27:41.668Z,8.53
2019-04-16T05:30:12.866Z,7.17
2019-04-16T05:32:43.862Z,9.17
2019-04-16T05:35:14.917Z,7.20
2019-04-16T05:37:48.471Z,8.55
2019-04-16T05:40:18.603Z,8.17
2019-04-16T05:42:52.539Z,7.00
2019-04-16T05:45:22.218Z,7.37
2019-04-16T05:47:53.203Z,7.50
2019-04-16T05:50:28.741Z,7.47
2019-04-16T05:52:58.601Z,6.30
2019-04-16T05:55:37.726Z,6.27
2019-04-16T05:58:08.823Z,7.63
2019-04-16T06:00:44.602Z,6.73
2019-04-16T06:03:20.628Z,12.27
2019-04-16T06:05:48.537Z,10.67
2019-04-16T06:08:19.872Z,9.13
2019-04-16T06:10:51.272Z,7.87
2019-04-16T06:13:49.224Z,7.10
2019-04-16T06:16:25.844Z,7.70
2019-04-16T06:19:19.142Z,7.03
2019-04-16T06:22:21.470Z,11.60
2019-04-16T06:25:08.247Z,10.13
2019-04-16T06:27:46.488Z,11.90
2019-04-16T06:30:35.188Z,11.90
2019-04-16T06:33:15.702Z,7.47
2019-04-16T06:36:10.224Z,10.45
2019-04-16T06:38:57.817Z,9.80
2019-04-16T06:41:52.726Z,9.57
2019-04-16T06:44:29.841Z,10.23
2019-04-16T06:47:04.560Z,8.40
2019-04-16T06:50:03.700Z,10.10
2019-04-16T06:52:42.009Z,10.80
2019-04-16T06:55:24.643Z,11.20
2019-04-16T06:58:07.970Z,8.23
2019-04-16T07:01:05.916Z,12.77
2019-04-16T07:03:51.488Z,8.10
2019-04-16T07:06:36.153Z,8.47
2019-04-16T07:09:23.382Z,9.33
2019-04-16T07:11:55.038Z,6.67
2019-04-16T07:17:20.873Z,13.20
2019-04-16T07:19:51.975Z,10.53
2019-04-16T07:22:23.072Z,8.27
2019-04-16T07:25:03.848Z,9.17
2019-04-16T07:27:45.401Z,9.60
2019-04-16T07:30:23.486Z,8.87
2019-04-16T07:33:19.612Z,9.43
2019-04-16T07:36:15.888Z,11.53
2019-04-16T07:39:28.773Z,9.20
2019-04-16T07:42:10.751Z,9.10
2019-04-16T07:44:57.058Z,10.88
2019-04-16T07:47:53.408Z,9.37
2019-04-16T07:50:39.267Z,10.67
2019-04-16T07:53:25.747Z,10.93
2019-04-16T07:55:59.652Z,7.77
2019-04-16T07:58:31.890Z,10.07
2019-04-16T08:01:05.115Z,10.10
2019-04-16T08:03:36.359Z,10.00
2019-04-16T08:06:10.709Z,10.80
2019-04-16T08:08:40.647Z,10.53
2019-04-16T08:11:11.778Z,11.60
2019-04-16T08:13:43.836Z,9.47
2019-04-16T08:16:14.996Z,9.08
2019-04-16T08:18:50.697Z,10.40
2019-04-16T08:21:22.739Z,9.87
2019-04-16T08:24:03.028Z,11.33
2019-04-16T08:26:34.130Z,10.72
2019-04-16T08:29:05.661Z,12.83
2019-04-16T08:31:40.856Z,12.23
2019-04-16T08:34:12.772Z,10.23
2019-04-16T08:36:44.002Z,9.38
2019-04-16T08:39:16.030Z,10.83
2019-04-16T08:41:52.144Z,11.37
2019-04-16T08:44:20.209Z,9.90
2019-04-16T08:46:51.357Z,9.50
2019-04-16T08:49:23.038Z,12.20
2019-04-16T08:52:01.571Z,10.70
2019-04-16T08:54:32.772Z,12.83
2019-04-16T08:57:03.957Z,10.70
2019-04-16T08:59:35.153Z,12.23
2019-04-16T09:02:07.154Z,13.20
2019-04-16T09:04:39.425Z,12.07
2019-04-16T09:07:29.549Z,11.20
2019-04-16T09:10:01.104Z,11.30
2019-04-16T09:12:32.529Z,14.30
2019-04-16T09:15:03.746Z,10.32
2019-04-16T09:17:38.128Z,9.70
2019-04-16T09:20:11.664Z,12.00
2019-04-16T09:22:49.301Z,11.40
2019-04-16T09:25:42.577Z,11.73
2019-04-16T09:28:25.808Z,12.78
2019-04-16T09:31:06.951Z,10.67
2019-04-16T09:33:48.073Z,10.37
2019-04-16T09:36:39.317Z,11.80
2019-04-16T09:39:20.237Z,14.93
2019-04-16T09:41:51.538Z,8.93
2019-04-16T09:44:22.692Z,10.13
2019-04-16T09:46:56.607Z,9.35
2019-04-16T09:49:26.587Z,9.00
2019-04-16T09:51:57.827Z,9.67
2019-04-16T09:54:32.389Z,8.33
2019-04-16T09:57:09.170Z,11.00
2019-04-16T09:59:47.742Z,7.90
2019-04-16T10:02:22.964Z,9.10
2019-04-16T10:04:54.101Z,8.43
2019-04-16T10:07:25.285Z,9.23
2019-04-16T10:09:56.408Z,12.60
2019-04-16T10:12:27.493Z,8.10
2019-04-16T10:14:58.585Z,8.27
2019-04-16T10:17:29.851Z,9.60
2019-04-16T10:20:00.919Z,8.73
2019-04-16T10:22:32.241Z,9.37
2019-04-16T10:25:06.417Z,9.00
2019-04-16T10:27:40.353Z,6.55
2019-04-16T10:30:30.858Z,11.97
2019-04-16T10:33:02.238Z,8.05
2019-04-16T10:35:33.589Z,8.10
2019-04-16T10:38:15.615Z,10.60
2019-04-16T10:40:51.726Z,8.57
2019-04-16T10:43:44.644Z,12.20
2019-04-16T10:46:42.281Z,10.60
2019-04-16T10:49:19.490Z,9.27
2019-04-16T10:52:04.635Z,8.13
2019-04-16T10:54:43.454Z,10.47
2019-04-16T10:57:38.407Z,7.93
2019-04-16T11:00:35.446Z,9.97
2019-04-16T11:03:14.969Z,8.87
2019-04-16T11:06:05.297Z,10.63
2019-04-16T11:08:37.056Z,7.27
2019-04-16T11:11:08.429Z,7.03
2019-04-16T11:13:58.323Z,8.13
2019-04-16T11:16:18.693Z,8.03
2019-04-16T11:18:49.913Z,7.50
2019-04-16T11:21:21.399Z,7.77
2019-04-16T11:23:52.566Z,8.73
2019-04-16T11:26:23.745Z,9.30
2019-04-16T11:28:54.992Z,7.00
2019-04-16T11:31:26.813Z,6.85
2019-04-16T11:33:58.060Z,7.23
2019-04-16T11:36:31.632Z,8.55
2019-04-16T11:39:04.034Z,10.63
2019-04-16T11:41:36.241Z,10.85
2019-04-16T11:44:14.774Z,10.90
2019-04-16T11:46:45.748Z,8.27
2019-04-16T11:49:17.094Z,8.30
2019-04-16T11:51:48.296Z,10.90
2019-04-16T11:54:19.686Z,10.13
2019-04-16T11:56:50.873Z,9.80
2019-04-16T11:59:22.185Z,9.10
2019-04-16T12:02:05.124Z,9.63
2019-04-16T12:04:58.837Z,9.85
2019-04-16T12:07:58.060Z,10.57
2019-04-16T12:10:53.849Z,10.16
2019-04-16T12:13:44.959Z,9.03
2019-04-16T12:16:28.196Z,9.57
2019-04-16T12:19:17.759Z,11.43
2019-04-16T12:21:59.760Z,9.77
2019-04-16T12:25:04.958Z,8.97
2019-04-16T12:27:50.044Z,7.77
2019-04-16T12:30:40.153Z,9.23
2019-04-16T12:33:31.970Z,9.63
2019-04-16T12:36:22.377Z,6.30
2019-04-16T12:39:01.652Z,7.77
2019-04-16T12:41:49.393Z,6.83
2019-04-16T12:44:50.120Z,12.83
2019-04-16T12:47:40.580Z,8.08
2019-04-16T12:50:29.710Z,11.20
2019-04-16T12:53:13.801Z,12.03
2019-04-16T12:56:08.577Z,9.98
2019-04-16T12:58:44.140Z,10.50
2019-04-16T13:01:37.316Z,8.40
2019-04-16T13:04:12.787Z,6.45
2019-04-16T13:07:09.149Z,9.33
2019-04-16T13:10:08.679Z,9.63
2019-04-16T13:13:00.145Z,8.37
2019-04-16T13:15:45.065Z,7.60
2019-04-16T13:18:23.599Z,10.03
2019-04-16T13:21:03.857Z,11.23
2019-04-16T13:23:38.541Z,12.07
2019-04-16T13:26:27.714Z,8.18
2019-04-16T13:29:00.314Z,9.17
2019-04-16T13:31:31.375Z,9.47
2019-04-16T13:34:02.548Z,8.53
2019-04-16T13:36:33.668Z,11.30
2019-04-16T13:39:20.909Z,10.90
2019-04-16T13:41:51.999Z,7.30
2019-04-16T13:44:25.437Z,8.60
2019-04-16T13:47:01.331Z,7.80
2019-04-16T13:49:40.619Z,11.77
2019-04-16T13:52:17.013Z,8.90
2019-04-16T13:55:10.562Z,10.20
2019-04-16T13:57:42.538Z,10.37
2019-04-16T14:00:19.935Z,8.63
2019-04-16T14:02:54.145Z,10.97
2019-04-16T14:05:25.241Z,8.20
2019-04-16T14:07:56.363Z,7.40
2019-04-16T14:10:27.490Z,8.30
2019-04-16T14:12:58.925Z,9.10
2019-04-16T14:15:39.071Z,6.87
2019-04-16T14:18:06.451Z,6.33
2019-04-16T14:20:37.557Z,7.27
2019-04-16T14:23:08.666Z,10.13
2019-04-16T14:25:39.708Z,7.73
2019-04-16T14:28:11.177Z,6.03
2019-04-16T14:30:46.191Z,7.27
2019-04-16T14:33:25.167Z,6.60
2019-04-16T14:35:56.192Z,9.47
2019-04-16T14:38:36.959Z,8.27
2019-04-16T14:41:08.542Z,7.67
2019-04-16T14:43:42.320Z,10.53
2019-04-16T14:46:13.485Z,7.63
2019-04-16T14:48:46.467Z,8.03
2019-04-16T14:51:17.473Z,8.03
2019-04-16T14:53:56.840Z,7.30
2019-04-16T14:56:36.711Z,8.03
2019-04-16T14:59:38.745Z,7.97
2019-04-16T15:02:29.374Z,9.80
2019-04-16T15:05:09.277Z,7.43
2019-04-16T15:07:59.900Z,8.80
2019-04-16T15:11:05.312Z,7.20
2019-04-16T15:13:58.323Z,9.10
2019-04-16T15:16:40.019Z,8.53
2019-04-16T15:19:25.758Z,8.47
2019-04-16T15:22:00.122Z,6.87
2019-04-16T15:24:38.156Z,9.77
2019-04-16T15:27:18.562Z,7.07
2019-04-16T15:29:56.504Z,7.58
2019-04-16T15:32:59.751Z,8.57
2019-04-16T15:35:37.783Z,9.03
2019-04-16T15:38:29.608Z,7.07
2019-04-16T15:41:35.068Z,7.87
2019-04-16T15:44:10.263Z,8.33
2019-04-16T15:47:00.679Z,10.70
2019-04-16T15:49:37.510Z,10.07
2019-04-16T15:52:27.290Z,9.20
2019-04-16T15:55:16.333Z,9.50
2019-04-16T15:58:13.111Z,6.03
2019-04-16T16:00:52.697Z,8.83
2019-04-16T16:03:52.027Z,9.65
2019-04-16T16:06:24.743Z,10.77
2019-04-16T16:09:20.887Z,7.70
2019-04-16T16:11:57.025Z,8.90
2019-04-16T16:14:33.214Z,8.73
2019-04-16T16:17:01.706Z,10.80
2019-04-16T16:19:32.855Z,9.80
2019-04-16T16:22:03.959Z,10.80
2019-04-16T16:24:36.064Z,10.48
2019-04-16T16:27:07.724Z,12.13
2019-04-16T16:29:38.869Z,10.30
2019-04-16T16:32:10.060Z,7.58
2019-04-16T16:34:41.217Z,12.70
2019-04-16T16:37:12.574Z,8.47
2019-04-16T16:39:43.714Z,9.53
2019-04-16T16:42:15.830Z,8.67
2019-04-16T16:44:49.505Z,9.88
2019-04-16T16:47:48.853Z,7.23
2019-04-16T16:50:20.051Z,9.05
2019-04-16T16:53:05.609Z,7.73
2019-04-16T16:55:39.606Z,9.87
2019-04-16T16:58:41.800Z,8.80
2019-04-16T17:01:23.344Z,7.83
2019-04-16T17:04:19.418Z,7.60
2019-04-16T17:06:50.741Z,8.60
2019-04-16T17:09:27.155Z,9.00
2019-04-16T17:12:04.305Z,8.10
2019-04-16T17:14:37.742Z,11.45
2019-04-16T17:17:14.329Z,7.87
2019-04-16T17:19:41.630Z,6.70
2019-04-16T17:22:14.633Z,12.00
2019-04-16T17:24:45.674Z,8.40
2019-04-16T17:27:16.880Z,9.37
2019-04-16T17:29:49.982Z,8.90
2019-04-16T17:32:22.125Z,10.30
2019-04-16T17:34:53.656Z,11.27
2019-04-16T17:37:27.935Z,8.53
2019-04-16T17:40:05.294Z,8.13
2019-04-16T17:42:39.237Z,7.30
2019-04-16T17:45:28.324Z,9.83
2019-04-16T17:48:14.178Z,7.33
2019-04-16T17:51:04.255Z,7.12
2019-04-16T17:53:45.635Z,8.78
2019-04-16T17:56:35.609Z,9.60
2019-04-16T17:59:09.830Z,9.15
2019-04-16T18:01:58.778Z,7.42
2019-04-16T18:04:38.505Z,6.87
2019-04-16T18:07:34.255Z,7.63
2019-04-16T18:10:26.581Z,8.20
2019-04-16T18:13:15.451Z,11.30
2019-04-16T18:16:16.672Z,7.83
2019-04-16T18:19:28.754Z,9.65
2019-04-16T18:31:14.109Z,7.20
2019-04-16T18:34:14.562Z,6.93
2019-04-16T18:37:37.113Z,7.12
2019-04-16T18:40:31.156Z,6.47
2019-04-16T18:43:27.321Z,6.22
2019-04-16T18:46:27.064Z,5.77
2019-04-16T18:49:05.919Z,10.20
2019-04-16T18:51:47.659Z,4.73
2019-04-16T18:54:32.943Z,8.35
2019-04-16T18:57:05.596Z,6.10
2019-04-16T18:59:36.876Z,6.07
2019-04-16T19:02:09.786Z,6.93
2019-04-16T19:04:41.162Z,7.57
2019-04-16T19:07:12.543Z,6.45
2019-04-16T19:09:43.813Z,6.67
2019-04-16T19:12:16.160Z,4.12
2019-04-16T19:14:52.355Z,6.07
2019-04-16T19:17:23.652Z,6.47
2019-04-16T19:19:54.938Z,6.67
2019-04-16T19:22:26.125Z,5.33
2019-04-16T19:24:57.447Z,5.87
2019-04-16T19:27:34.346Z,4.47
2019-04-16T19:30:06.631Z,4.95
2019-04-16T19:32:37.905Z,4.80
2019-04-16T19:35:11.402Z,3.43
2019-04-16T19:37:42.382Z,5.30
2019-04-16T19:40:16.095Z,9.10
2019-04-16T19:42:50.496Z,5.27
2019-04-16T19:45:22.304Z,4.03
2019-04-16T19:47:53.668Z,6.40
2019-04-16T19:50:25.118Z,5.93
2019-04-16T19:52:56.362Z,7.80
2019-04-16T19:55:27.687Z,5.57
2019-04-16T19:57:58.962Z,3.37
2019-04-16T20:00:30.544Z,4.53
2019-04-16T20:03:01.976Z,3.57
2019-04-16T20:05:33.324Z,5.33
2019-04-16T20:08:04.637Z,4.90
2019-04-16T20:10:35.944Z,4.45
2019-04-16T20:13:07.306Z,4.53
2019-04-16T20:15:43.309Z,3.73
2019-04-16T20:18:11.816Z,4.42
2019-04-16T20:20:42.976Z,4.73
2019-04-16T20:23:14.269Z,3.50
2019-04-16T20:25:45.603Z,6.85
2019-04-16T20:28:16.903Z,6.17
2019-04-16T20:30:48.100Z,6.67
2019-04-16T20:33:20.316Z,5.77
2019-04-16T20:35:53.274Z,5.70
2019-04-16T20:38:29.050Z,5.40
2019-04-16T20:40:57.579Z,5.60
2019-04-16T20:43:28.862Z,6.47
2019-04-16T20:46:00.506Z,4.53
2019-04-16T20:48:31.872Z,4.53
2019-04-16T20:51:03.253Z,6.07
2019-04-16T20:53:34.496Z,7.27
2019-04-16T20:56:10.036Z,4.33
2019-04-16T20:58:39.284Z,4.17
2019-04-16T21:01:10.610Z,6.10
2019-04-16T21:03:41.903Z,5.90
2019-04-16T21:06:13.336Z,8.67
2019-04-16T21:08:48.246Z,5.60
2019-04-16T21:11:19.457Z,4.70
2019-04-16T21:13:50.792Z,3.60
2019-04-16T21:16:21.949Z,5.40
2019-04-16T21:18:53.140Z,4.43
2019-04-16T21:21:24.456Z,5.93
2019-04-16T21:24:06.880Z,5.23
2019-04-16T21:26:33.760Z,4.93
2019-04-16T21:29:14.244Z,6.07
2019-04-16T21:31:47.548Z,5.90
2019-04-16T21:34:30.244Z,6.00
2019-04-16T21:37:15.966Z,5.35
2019-04-16T21:39:55.646Z,3.97
2019-04-16T21:42:26.875Z,5.13
2019-04-16T21:44:58.116Z,3.87
2019-04-16T21:47:29.446Z,3.87
2019-04-16T21:50:01.833Z,6.40
2019-04-16T21:52:33.115Z,8.17
2019-04-16T21:55:06.357Z,6.90
2019-04-16T21:57:37.672Z,8.03
2019-04-16T22:00:17.485Z,6.62
2019-04-16T22:02:50.846Z,7.80
2019-04-16T22:05:23.120Z,5.97
2019-04-16T22:07:57.067Z,5.63
2019-04-16T22:10:27.318Z,5.83
2019-04-16T22:12:58.526Z,4.57
2019-04-16T22:15:29.904Z,3.53
2019-04-16T22:18:07.585Z,3.70
2019-04-16T22:20:35.706Z,3.67
2019-04-16T22:23:07.841Z,4.23
2019-04-16T22:25:39.383Z,5.95
2019-04-16T22:28:12.748Z,5.03
2019-04-16T22:30:45.349Z,4.67
2019-04-16T22:33:16.813Z,5.27
2019-04-16T22:35:48.090Z,5.00
2019-04-16T22:38:23.942Z,4.70
2019-04-16T22:41:17.168Z,5.50
2019-04-16T22:44:02.001Z,5.73
2019-04-16T22:46:42.267Z,10.03
2019-04-16T22:49:13.435Z,5.00
2019-04-16T22:51:44.633Z,4.07
2019-04-16T22:54:17.639Z,4.60
2019-04-16T22:56:52.935Z,3.23
2019-04-16T22:59:24.113Z,6.87
2019-04-16T23:01:55.313Z,3.73
2019-04-16T23:04:27.174Z,8.33
2019-04-16T23:06:58.645Z,5.23
2019-04-16T23:09:31.248Z,4.87
2019-04-16T23:12:02.745Z,4.70
2019-04-16T23:14:34.951Z,8.27
2019-04-16T23:17:06.941Z,5.30
2019-04-16T23:19:39.161Z,4.30
2019-04-16T23:22:14.261Z,15.20
2019-04-16T23:24:43.548Z,21.57
2019-04-16T23:27:15.138Z,15.87
2019-04-16T23:29:47.536Z,12.25
2019-04-16T23:32:19.715Z,11.63
2019-04-16T23:34:50.992Z,7.67
2019-04-16T23:37:23.248Z,6.23
2019-04-16T23:39:55.167Z,8.63
2019-04-16T23:42:26.496Z,8.23
2019-04-16T23:45:12.999Z,6.27
2019-04-16T23:48:15.815Z,8.00
2019-04-16T23:51:07.546Z,5.73
2019-04-16T23:53:49.591Z,3.30
2019-04-16T23:56:25.872Z,4.00
2019-04-16T23:59:02.941Z,6.67
